Time;durP1;ratioP1;P1;durP2;ratioP2;P2;SDS_P1;SDS_P2;PMS_P1;PMS_P2;Temp;Humidity;BMP_temperature;BMP_pressure;BME280_temperature;BME280_humidity;BME280_pressure;Samples;Min_cycle;Max_cycle;Signal;HPM_P1;HPM_P2
2023/04/01 00:00:12;;;;;;;;;;;;;;;15.10;70.18;98689.41;1041401;28;1428;-66
2023/04/01 00:01:03;;;;;;;;;;;;;;;15.12;70.45;98692.75;1040863;28;685;-66
2023/04/01 00:01:53;;;;;;;;;;;;;;;15.12;69.95;98695.44;1043372;28;705;-66
2023/04/01 00:02:43;;;;;;;;;;;;;;;15.13;70.08;98686.38;1044394;28;1146;-67
2023/04/01 00:03:34;;;;;;;;;;;;;;;15.13;69.91;98697.09;1043848;28;657;-66
2023/04/01 00:04:25;;;;;;;;;;;;;;;15.13;70.10;98694.44;1043728;28;696;-66
2023/04/01 00:05:16;;;;;;;;;;;;;;;15.11;70.24;98694.59;1045298;28;658;-66
2023/04/01 00:06:06;;;;;;;;;;;;;;;15.11;69.73;98689.25;1043797;28;1977;-67
2023/04/01 00:06:57;;;;;;;;;;;;;;;15.12;69.74;98695.44;1044597;28;615;-67
2023/04/01 00:07:47;;;;;;;;;;;;;;;15.11;69.88;98691.91;1044435;28;968;-67
2023/04/01 00:08:38;;;;;;;;;;;;;;;15.10;70.12;98690.25;1044310;28;1110;-67
2023/04/01 00:09:28;;;;;;;;;;;;;;;15.10;70.01;98690.25;1044935;28;817;-67
2023/04/01 00:10:18;;;;;;;;;;;;;;;15.07;69.96;98695.97;1045085;28;674;-67
2023/04/01 00:11:09;;;;;;;;;;;;;;;15.09;69.86;98691.25;1045129;28;621;-66
2023/04/01 00:11:59;;;;;;;;;;;;;;;15.09;70.12;98698.47;1045299;28;673;-67
2023/04/01 00:12:50;;;;;;;;;;;;;;;15.08;69.85;98696.81;1045012;28;981;-67
2023/04/01 00:13:41;;;;;;;;;;;;;;;15.08;70.20;98694.13;1044585;28;1208;-67
2023/04/01 00:14:31;;;;;;;;;;;;;;;15.07;70.11;98695.13;1043943;28;712;-67
2023/04/01 00:15:22;;;;;;;;;;;;;;;15.09;70.15;98698.47;1043881;28;1384;-67
2023/04/01 00:16:12;;;;;;;;;;;;;;;15.08;70.08;98694.13;1041449;28;1487;-67
2023/04/01 00:17:02;;;;;;;;;;;;;;;15.08;70.11;98696.81;1041164;28;1522;-67
2023/04/01 00:17:54;;;;;;;;;;;;;;;15.11;70.14;98699.13;1044573;28;650;-67
2023/04/01 00:18:46;;;;;;;;;;;;;;;15.07;70.21;98698.66;1041428;28;744;-67
2023/04/01 00:19:37;;;;;;;;;;;;;;;15.06;70.39;98696.16;1045219;28;669;-67
2023/04/01 00:20:27;;;;;;;;;;;;;;;15.04;69.97;98700.88;1041914;28;650;-67
2023/04/01 00:21:18;;;;;;;;;;;;;;;15.07;70.50;98705.88;1044629;28;701;-67
2023/04/01 00:22:11;;;;;;;;;;;;;;;15.07;70.43;98704.03;1044443;28;1218;-67
2023/04/01 00:23:01;;;;;;;;;;;;;;;15.08;70.27;98702.16;1043462;28;748;-67
2023/04/01 00:23:52;;;;;;;;;;;;;;;15.10;70.29;98703.66;1045479;28;727;-67
2023/04/01 00:24:42;;;;;;;;;;;;;;;15.11;69.99;98707.19;1044035;28;646;-67
2023/04/01 00:25:33;;;;;;;;;;;;;;;15.10;69.85;98703.66;1045201;28;677;-67
2023/04/01 00:26:24;;;;;;;;;;;;;;;15.09;70.06;98709.22;1045045;28;1111;-68
2023/04/01 00:27:15;;;;;;;;;;;;;;;15.10;69.97;98702.84;1041022;28;724;-67
2023/04/01 00:28:05;;;;;;;;;;;;;;;15.06;70.27;98704.19;1038958;28;1158;-67
2023/04/01 00:28:56;;;;;;;;;;;;;;;15.04;69.86;98701.72;1040305;28;669;-67
2023/04/01 00:29:47;;;;;;;;;;;;;;;15.04;70.35;98706.25;1039826;28;1138;-67
2023/04/01 00:30:37;;;;;;;;;;;;;;;15.03;69.94;98704.59;1040502;28;1475;-67
2023/04/01 00:31:28;;;;;;;;;;;;;;;15.03;69.87;98699.22;1041203;28;697;-68
2023/04/01 00:32:19;;;;;;;;;;;;;;;15.01;70.41;98706.59;1045260;28;638;-67
2023/04/01 00:33:09;;;;;;;;;;;;;;;15.00;70.48;98700.41;1043863;28;672;-67
2023/04/01 00:34:00;;;;;;;;;;;;;;;15.00;70.50;98702.25;1044994;28;1130;-67
2023/04/01 00:34:51;;;;;;;;;;;;;;;15.00;70.12;98702.25;1045122;28;694;-67
2023/04/01 00:35:41;;;;;;;;;;;;;;;15.00;69.90;98703.09;1044940;28;1190;-67
2023/04/01 00:36:32;;;;;;;;;;;;;;;15.01;70.55;98706.59;1045187;28;735;-67
2023/04/01 00:37:22;;;;;;;;;;;;;;;15.02;70.06;98703.75;1044907;28;1173;-67
2023/04/01 00:38:13;;;;;;;;;;;;;;;15.00;69.99;98700.41;1045086;28;684;-67
2023/04/01 00:39:03;;;;;;;;;;;;;;;15.04;69.94;98708.94;1041016;28;626;-67
2023/04/01 00:39:54;;;;;;;;;;;;;;;15.03;70.09;98705.41;1043980;28;725;-67
2023/04/01 00:40:44;;;;;;;;;;;;;;;15.04;70.07;98706.25;1041166;28;713;-68
2023/04/01 00:41:35;;;;;;;;;;;;;;;15.02;70.00;98706.44;1040559;28;661;-67
2023/04/01 00:42:25;;;;;;;;;;;;;;;15.01;70.02;98709.28;1043484;28;630;-67
2023/04/01 00:43:17;;;;;;;;;;;;;;;15.01;69.91;98707.44;1040970;28;1087;-67
2023/04/01 00:44:08;;;;;;;;;;;;;;;15.04;69.92;98703.56;1039964;28;728;-67
2023/04/01 00:44:58;;;;;;;;;;;;;;;15.03;69.98;98709.94;1044956;28;1149;-67
2023/04/01 00:45:49;;;;;;;;;;;;;;;15.04;70.10;98707.09;1045144;28;669;-67
2023/04/01 00:46:39;;;;;;;;;;;;;;;15.05;69.78;98711.41;1043452;28;1188;-67
2023/04/01 00:47:30;;;;;;;;;;;;;;;15.06;69.85;98707.72;1044096;28;1490;-67
2023/04/01 00:48:20;;;;;;;;;;;;;;;15.07;69.83;98712.06;1039326;28;656;-67
2023/04/01 00:49:11;;;;;;;;;;;;;;;15.05;69.59;98706.03;1040908;28;1550;-67
2023/04/01 00:50:01;;;;;;;;;;;;;;;15.04;70.01;98704.41;1039270;28;634;-67
2023/04/01 00:50:51;;;;;;;;;;;;;;;15.03;69.82;98707.25;1042217;28;687;-67
2023/04/01 00:51:42;;;;;;;;;;;;;;;15.03;69.65;98715.31;1041669;28;636;-67
2023/04/01 00:52:32;;;;;;;;;;;;;;;15.03;70.04;98710.78;1042181;28;713;-66
2023/04/01 00:53:23;;;;;;;;;;;;;;;15.03;69.94;98710.78;1040525;28;638;-68
2023/04/01 00:54:13;;;;;;;;;;;;;;;15.05;69.96;98713.28;1042964;28;818;-67
2023/04/01 00:55:04;;;;;;;;;;;;;;;15.05;69.90;98718.66;1040530;28;721;-67
2023/04/01 00:55:54;;;;;;;;;;;;;;;15.04;70.08;98714.31;1039857;28;1058;-67
2023/04/01 00:56:45;;;;;;;;;;;;;;;15.02;70.11;98708.28;1040433;28;717;-67
2023/04/01 00:57:36;;;;;;;;;;;;;;;15.01;70.19;98717.34;1040937;28;1054;-67
2023/04/01 00:58:26;;;;;;;;;;;;;;;15.01;70.39;98711.97;1039777;28;663;-67
2023/04/01 00:59:17;;;;;;;;;;;;;;;15.01;70.31;98715.50;1041568;28;1109;-67
2023/04/01 01:00:07;;;;;;;;;;;;;;;15.03;70.17;98718.00;1039851;28;630;-67
2023/04/01 01:00:58;;;;;;;;;;;;;;;15.02;70.31;98716.31;1040429;28;704;-67
2023/04/01 01:01:48;;;;;;;;;;;;;;;15.00;70.28;98715.66;1040988;28;622;-67
2023/04/01 01:02:39;;;;;;;;;;;;;;;15.00;69.96;98713.81;1043418;28;1431;-67
2023/04/01 01:03:30;;;;;;;;;;;;;;;15.01;69.84;98723.53;1042475;28;1541;-66
2023/04/01 01:04:21;;;;;;;;;;;;;;;15.00;70.14;98715.66;1039111;28;690;-67
2023/04/01 01:05:11;;;;;;;;;;;;;;;15.03;70.37;98718.00;1041345;28;1225;-67
2023/04/01 01:06:02;;;;;;;;;;;;;;;14.99;70.14;98720.19;1044119;28;1906;-67
2023/04/01 01:06:53;;;;;;;;;;;;;;;15.02;69.74;98719.00;1044936;28;712;-67
2023/04/01 01:07:43;;;;;;;;;;;;;;;15.04;70.07;98717.81;1044363;28;1186;-67
2023/04/01 01:08:36;;;;;;;;;;;;;;;15.04;70.06;98717.81;1045072;28;729;-67
2023/04/01 01:09:27;;;;;;;;;;;;;;;15.01;70.37;98714.66;1043812;28;1154;-67
2023/04/01 01:10:17;;;;;;;;;;;;;;;14.99;70.64;98716.69;1041483;28;706;-67
2023/04/01 01:11:08;;;;;;;;;;;;;;;15.00;70.34;98721.03;1044551;28;1339;-67
2023/04/01 01:11:58;;;;;;;;;;;;;;;15.00;70.20;98721.03;1041778;28;728;-67
2023/04/01 01:12:49;;;;;;;;;;;;;;;15.02;70.33;98719.00;1041666;28;1170;-67
2023/04/01 01:13:39;;;;;;;;;;;;;;;15.03;70.30;98718.00;1041737;28;651;-67
2023/04/01 01:14:30;;;;;;;;;;;;;;;15.02;70.40;98724.38;1040517;28;1182;-68
2023/04/01 01:15:20;;;;;;;;;;;;;;;15.00;70.17;98729.91;1041666;28;728;-67
2023/04/01 01:16:10;;;;;;;;;;;;;;;14.99;70.23;98722.88;1045363;28;704;-67
2023/04/01 01:17:01;;;;;;;;;;;;;;;14.98;69.94;98718.53;1040940;28;1078;-68
2023/04/01 01:17:51;;;;;;;;;;;;;;;14.98;69.98;98720.38;1041062;28;623;-68
2023/04/01 01:18:42;;;;;;;;;;;;;;;14.99;70.16;98714.84;1041614;28;1134;-67
2023/04/01 01:19:32;;;;;;;;;;;;;;;15.03;70.10;98726.03;1041577;28;659;-67
2023/04/01 01:20:23;;;;;;;;;;;;;;;14.99;70.12;98720.19;1044594;28;1228;-67
2023/04/01 01:21:19;;;;;;;;;;;;;;;14.96;70.33;98725.09;1041737;28;623;-67
2023/04/01 01:22:10;;;;;;;;;;;;;;;14.93;70.59;98727.09;1040114;28;705;-68
2023/04/01 01:23:00;;;;;;;;;;;;;;;14.97;70.33;98721.38;1044261;28;1003;-68
2023/04/01 01:23:51;;;;;;;;;;;;;;;14.94;70.59;98733.31;1045784;28;664;-68
2023/04/01 01:24:42;;;;;;;;;;;;;;;14.90;70.35;98724.78;1045113;28;928;-68
2023/04/01 01:25:32;;;;;;;;;;;;;;;14.94;70.27;98726.09;1046022;28;712;-68
2023/04/01 01:26:26;;;;;;;;;;;;;;;14.93;70.11;98726.28;1044777;28;1894;-68
2023/04/01 01:27:16;;;;;;;;;;;;;;;14.92;70.28;98725.44;1045138;28;633;-67
2023/04/01 01:28:06;;;;;;;;;;;;;;;14.96;70.23;98725.09;1042287;28;1098;-68
2023/04/01 01:28:57;;;;;;;;;;;;;;;14.98;70.17;98728.41;1040496;28;1019;-68
2023/04/01 01:29:47;;;;;;;;;;;;;;;14.93;70.42;98724.41;1045031;28;1111;-68
2023/04/01 01:30:38;;;;;;;;;;;;;;;14.97;70.16;98718.69;1041015;28;991;-68
2023/04/01 01:31:28;;;;;;;;;;;;;;;14.94;70.57;98727.94;1043319;28;1048;-67
2023/04/01 01:32:19;;;;;;;;;;;;;;;14.96;70.16;98720.56;1044874;28;1281;-68
2023/04/01 01:33:09;;;;;;;;;;;;;;;14.97;70.13;98729.44;1041483;28;1143;-67
2023/04/01 01:34:00;;;;;;;;;;;;;;;14.92;70.21;98727.28;1042049;28;952;-68
2023/04/01 01:34:50;;;;;;;;;;;;;;;14.93;70.34;98724.41;1044831;28;1226;-68
2023/04/01 01:35:40;;;;;;;;;;;;;;;14.93;70.25;98729.78;1044173;28;1202;-68
2023/04/01 01:36:31;;;;;;;;;;;;;;;14.92;70.41;98736.16;1044410;28;1483;-67
2023/04/01 01:37:21;;;;;;;;;;;;;;;14.96;70.29;98725.09;1043567;28;1158;-68
2023/04/01 01:38:12;;;;;;;;;;;;;;;14.94;70.48;98728.78;1043751;28;1228;-67
2023/04/01 01:39:02;;;;;;;;;;;;;;;14.92;70.12;98730.81;1042870;28;1008;-68
2023/04/01 01:39:53;;;;;;;;;;;;;;;14.91;70.09;98723.75;1042840;28;1192;-68
2023/04/01 01:40:43;;;;;;;;;;;;;;;14.93;70.58;98727.09;1044135;28;1083;-68
2023/04/01 01:41:33;;;;;;;;;;;;;;;14.93;70.43;98726.28;1043675;28;1336;-68
2023/04/01 01:42:24;;;;;;;;;;;;;;;14.95;70.00;98724.25;1044089;28;1063;-67
2023/04/01 01:43:14;;;;;;;;;;;;;;;14.94;70.20;98728.78;1041656;28;1290;-67
2023/04/01 01:44:05;;;;;;;;;;;;;;;14.98;70.14;98733.78;1045623;28;1146;-68
2023/04/01 01:44:55;;;;;;;;;;;;;;;14.96;70.05;98733.13;1042339;28;1135;-68
2023/04/01 01:45:46;;;;;;;;;;;;;;;14.93;70.25;98737.84;1041199;28;1031;-68
2023/04/01 01:46:36;;;;;;;;;;;;;;;14.91;70.31;98729.13;1042318;28;1478;-67
2023/04/01 01:47:27;;;;;;;;;;;;;;;14.93;70.12;98735.16;1045231;28;1164;-67
2023/04/01 01:48:17;;;;;;;;;;;;;;;14.94;70.27;98734.13;1043161;28;1078;-67
2023/04/01 01:49:08;;;;;;;;;;;;;;;14.92;69.97;98730.81;1045030;28;1109;-67
2023/04/01 01:49:58;;;;;;;;;;;;;;;14.94;70.56;98731.47;1043301;28;1078;-67
2023/04/01 01:50:49;;;;;;;;;;;;;;;14.96;70.48;98730.44;1042685;28;1156;-66
2023/04/01 01:51:39;;;;;;;;;;;;;;;14.96;70.10;98735.81;1043372;28;1137;-67
2023/04/01 01:52:30;;;;;;;;;;;;;;;14.97;70.04;98740.16;1045113;28;1121;-66
2023/04/01 01:53:20;;;;;;;;;;;;;;;14.96;70.18;98735.81;1044007;28;1074;-67
2023/04/01 01:54:11;;;;;;;;;;;;;;;14.93;70.16;98740.50;1045201;28;1121;-67
2023/04/01 01:55:01;;;;;;;;;;;;;;;14.94;70.07;98744.03;1043711;28;1164;-67
2023/04/01 01:55:52;;;;;;;;;;;;;;;14.92;70.27;98738.84;1043955;28;1255;-66
2023/04/01 01:56:42;;;;;;;;;;;;;;;14.91;70.12;98739.84;1044344;28;1145;-67
2023/04/01 01:57:32;;;;;;;;;;;;;;;14.91;70.55;98739.84;1041743;28;1031;-67
2023/04/01 01:58:23;;;;;;;;;;;;;;;14.87;70.37;98733.19;1044483;28;924;-67
2023/04/01 01:59:13;;;;;;;;;;;;;;;14.87;70.32;98749.25;1039556;28;1047;-67
2023/04/01 02:00:04;;;;;;;;;;;;;;;14.89;70.21;98736.50;1044795;28;1129;-66
2023/04/01 02:00:54;;;;;;;;;;;;;;;14.91;70.29;98739.84;1043399;28;1263;-67
2023/04/01 02:01:45;;;;;;;;;;;;;;;14.86;70.25;98733.38;1046306;28;1201;-67
2023/04/01 02:02:36;;;;;;;;;;;;;;;14.88;70.47;98742.88;1044808;28;1066;-67
2023/04/01 02:03:26;;;;;;;;;;;;;;;14.89;70.14;98741.88;1045301;28;1102;-67
2023/04/01 02:04:16;;;;;;;;;;;;;;;14.91;70.45;98739.84;1045060;28;1050;-67
2023/04/01 02:05:07;;;;;;;;;;;;;;;14.94;70.50;98738.66;1045488;28;1109;-67
2023/04/01 02:05:57;;;;;;;;;;;;;;;14.93;70.54;98748.56;1040077;28;1890;-66
2023/04/01 02:06:48;;;;;;;;;;;;;;;14.93;70.21;98743.19;1038734;28;1019;-67
2023/04/01 02:07:38;;;;;;;;;;;;;;;14.92;70.41;98740.69;1041506;28;1121;-67
2023/04/01 02:08:29;;;;;;;;;;;;;;;14.88;70.09;98750.94;1040355;28;1213;-67
2023/04/01 02:09:20;;;;;;;;;;;;;;;14.84;70.36;98746.97;1039233;28;1139;-67
2023/04/01 02:10:10;;;;;;;;;;;;;;;14.88;70.38;98742.88;1038346;28;1127;-67
2023/04/01 02:11:01;;;;;;;;;;;;;;;14.88;70.32;98748.25;1039364;28;1256;-66
2023/04/01 02:11:51;;;;;;;;;;;;;;;14.85;70.25;98745.94;1041237;28;1118;-66
2023/04/01 02:12:42;;;;;;;;;;;;;;;14.88;70.39;98742.06;1040076;28;897;-66
2023/04/01 02:13:32;;;;;;;;;;;;;;;14.89;70.36;98752.59;1039049;28;1186;-66
2023/04/01 02:14:22;;;;;;;;;;;;;;;14.89;69.96;98739.19;1040182;28;968;-66
2023/04/01 02:15:14;;;;;;;;;;;;;;;14.90;70.24;98753.44;1037647;28;1099;-66
2023/04/01 02:16:04;;;;;;;;;;;;;;;14.92;70.34;98760.31;1040849;28;1063;-66
2023/04/01 02:16:57;;;;;;;;;;;;;;;14.95;70.35;98751.06;1041046;28;1413;-67
2023/04/01 02:17:48;;;;;;;;;;;;;;;14.93;70.06;98747.72;1040463;28;1241;-67
2023/04/01 02:18:38;;;;;;;;;;;;;;;14.93;70.55;98753.09;1039847;28;1072;-67
2023/04/01 02:19:28;;;;;;;;;;;;;;;14.94;70.35;98752.91;1041222;28;1067;-67
2023/04/01 02:20:19;;;;;;;;;;;;;;;14.91;70.29;98755.09;1039115;28;1005;-67
2023/04/01 02:21:09;;;;;;;;;;;;;;;14.88;70.52;98756.28;1038800;28;1091;-67
2023/04/01 02:22:00;;;;;;;;;;;;;;;14.90;69.88;98754.28;1039763;28;1126;-67
2023/04/01 02:22:50;;;;;;;;;;;;;;;14.89;70.28;98763.34;1038890;28;1052;-67
2023/04/01 02:23:41;;;;;;;;;;;;;;;14.89;70.16;98768.69;1038244;28;1070;-67
2023/04/01 02:24:31;;;;;;;;;;;;;;;14.88;69.97;98767.03;1041380;28;1115;-67
2023/04/01 02:25:21;;;;;;;;;;;;;;;14.84;70.28;98760.38;1041487;28;689;-67
2023/04/01 02:26:12;;;;;;;;;;;;;;;14.83;70.28;98760.56;1039816;28;1953;-67
2023/04/01 02:27:02;;;;;;;;;;;;;;;14.80;70.83;98753.69;1041532;28;754;-67
2023/04/01 02:27:53;;;;;;;;;;;;;;;14.84;70.78;98763.06;1041912;28;1167;-67
2023/04/01 02:28:43;;;;;;;;;;;;;;;14.86;70.10;98762.88;1041466;28;716;-67
2023/04/01 02:29:33;;;;;;;;;;;;;;;14.83;70.22;98760.56;1042045;28;1194;-67
2023/04/01 02:30:25;;;;;;;;;;;;;;;14.82;70.33;98767.75;1040997;28;698;-67
2023/04/01 02:31:15;;;;;;;;;;;;;;;14.84;70.41;98763.06;1039761;28;659;-67
2023/04/01 02:32:06;;;;;;;;;;;;;;;14.86;70.62;98762.88;1038102;28;991;-67
2023/04/01 02:32:56;;;;;;;;;;;;;;;14.88;70.15;98768.88;1040712;28;1001;-67
2023/04/01 02:33:47;;;;;;;;;;;;;;;14.82;70.26;98769.59;1039805;28;1501;-67
2023/04/01 02:34:37;;;;;;;;;;;;;;;14.84;70.37;98765.72;1038222;28;1127;-67
2023/04/01 02:35:27;;;;;;;;;;;;;;;14.86;70.25;98762.88;1039700;28;1267;-67
2023/04/01 02:36:18;;;;;;;;;;;;;;;14.87;70.41;98776.09;1039119;28;1036;-67
2023/04/01 02:37:08;;;;;;;;;;;;;;;14.86;70.11;98774.44;1038567;28;1106;-67
2023/04/01 02:37:59;;;;;;;;;;;;;;;14.87;70.61;98781.44;1038851;28;1020;-67
2023/04/01 02:38:49;;;;;;;;;;;;;;;14.87;70.29;98773.41;1039407;28;1093;-67
2023/04/01 02:39:42;;;;;;;;;;;;;;;14.88;70.35;98772.38;1040526;28;1237;-68
2023/04/01 02:40:32;;;;;;;;;;;;;;;14.87;70.33;98778.75;1040649;28;709;-68
2023/04/01 02:41:23;;;;;;;;;;;;;;;14.84;70.34;98771.09;1040223;28;685;-68
2023/04/01 02:42:13;;;;;;;;;;;;;;;14.84;70.15;98783.66;1038503;28;1174;-68
2023/04/01 02:43:04;;;;;;;;;;;;;;;14.87;70.59;98776.09;1039682;28;1064;-66
2023/04/01 02:43:54;;;;;;;;;;;;;;;14.83;70.50;98776.63;1037624;28;1327;-67
2023/04/01 02:44:45;;;;;;;;;;;;;;;14.82;70.18;98770.44;1040066;28;1061;-66
2023/04/01 02:45:35;;;;;;;;;;;;;;;14.82;70.69;98772.28;1039856;28;1143;-66
2023/04/01 02:46:26;;;;;;;;;;;;;;;14.80;70.39;98777.81;1040658;28;1973;-66
2023/04/01 02:47:16;;;;;;;;;;;;;;;14.81;70.59;98775.97;1037728;28;1191;-66
2023/04/01 02:48:07;;;;;;;;;;;;;;;14.84;70.34;98776.47;1038012;28;1251;-66
2023/04/01 02:48:57;;;;;;;;;;;;;;;14.90;70.16;98785.63;1039675;28;1226;-66
2023/04/01 02:49:47;;;;;;;;;;;;;;;14.87;70.42;98781.44;1038775;28;1476;-67
2023/04/01 02:50:38;;;;;;;;;;;;;;;14.90;70.13;98791.00;1037754;28;1214;-66
2023/04/01 02:51:28;;;;;;;;;;;;;;;14.90;70.32;98791.00;1038479;28;1127;-68
2023/04/01 02:52:19;;;;;;;;;;;;;;;14.91;70.46;98787.28;1038770;28;1148;-67
2023/04/01 02:53:09;;;;;;;;;;;;;;;14.88;70.50;98788.47;1038802;28;1164;-67
2023/04/01 02:54:00;;;;;;;;;;;;;;;14.89;70.23;98790.16;1038755;28;1183;-66
2023/04/01 02:54:50;;;;;;;;;;;;;;;14.86;70.30;98789.69;1039252;28;1203;-66
2023/04/01 02:55:41;;;;;;;;;;;;;;;14.84;70.42;98789.88;1038146;28;1191;-67
2023/04/01 02:56:31;;;;;;;;;;;;;;;14.81;70.48;98792.91;1038778;28;1211;-67
2023/04/01 02:57:21;;;;;;;;;;;;;;;14.79;70.70;98789.56;1037841;28;1183;-67
2023/04/01 02:58:12;;;;;;;;;;;;;;;14.80;70.48;98796.59;1035956;28;1105;-67
2023/04/01 02:59:02;;;;;;;;;;;;;;;14.81;70.61;98792.91;1036236;28;1290;-67
2023/04/01 02:59:53;;;;;;;;;;;;;;;14.83;70.46;98793.56;1039579;28;1191;-67
2023/04/01 03:00:43;;;;;;;;;;;;;;;14.83;70.80;98792.72;1040238;28;1345;-67
2023/04/01 03:01:34;;;;;;;;;;;;;;;14.83;70.71;98787.38;1040390;28;1035;-67
2023/04/01 03:02:24;;;;;;;;;;;;;;;14.83;70.75;98796.25;1039436;28;1350;-67
2023/04/01 03:03:15;;;;;;;;;;;;;;;14.83;70.25;98796.25;1036626;28;1116;-67
2023/04/01 03:04:05;;;;;;;;;;;;;;;14.83;70.49;98795.41;1038714;28;1222;-67
2023/04/01 03:04:56;;;;;;;;;;;;;;;14.82;70.33;98799.94;1040860;28;1068;-67
2023/04/01 03:05:46;;;;;;;;;;;;;;;14.83;70.58;98800.78;1040942;28;1272;-68
2023/04/01 03:06:36;;;;;;;;;;;;;;;14.84;70.36;98805.13;1043672;28;1154;-68
2023/04/01 03:07:27;;;;;;;;;;;;;;;14.83;70.60;98812.34;1041557;28;1133;-65
2023/04/01 03:08:17;;;;;;;;;;;;;;;14.80;70.47;98806.47;1044253;28;1253;-68
2023/04/01 03:09:08;;;;;;;;;;;;;;;14.81;70.60;98814.34;1041842;28;1122;-68
2023/04/01 03:09:58;;;;;;;;;;;;;;;14.82;70.45;98813.34;1040486;28;1171;-66
2023/04/01 03:10:49;;;;;;;;;;;;;;;14.80;70.57;98809.16;1041526;28;1183;-66
2023/04/01 03:11:40;;;;;;;;;;;;;;;14.83;70.32;98812.34;1040780;28;1155;-68
2023/04/01 03:12:31;;;;;;;;;;;;;;;14.82;70.58;98813.34;1042256;28;1076;-68
2023/04/01 03:13:21;;;;;;;;;;;;;;;14.84;70.38;98821.22;1041489;28;1227;-68
2023/04/01 03:14:11;;;;;;;;;;;;;;;14.85;70.44;98818.34;1039970;28;1091;-66
2023/04/01 03:15:02;;;;;;;;;;;;;;;14.84;70.37;98819.38;1041873;28;669;-67
2023/04/01 03:15:53;;;;;;;;;;;;;;;14.84;71.01;98816.69;1039551;28;599;-67
2023/04/01 03:16:43;;;;;;;;;;;;;;;14.83;70.53;98820.38;1043294;28;1138;-67
2023/04/01 03:17:33;;;;;;;;;;;;;;;14.79;70.47;98816.38;1044720;28;1182;-67
2023/04/01 03:18:24;;;;;;;;;;;;;;;14.78;70.57;98824.59;1044893;28;757;-67
2023/04/01 03:19:14;;;;;;;;;;;;;;;14.77;70.83;98823.75;1040775;28;625;-67
2023/04/01 03:20:05;;;;;;;;;;;;;;;14.77;70.75;98818.38;1041212;28;1232;-67
2023/04/01 03:20:55;;;;;;;;;;;;;;;14.80;70.39;98823.41;1041231;28;1563;-67
2023/04/01 03:21:46;;;;;;;;;;;;;;;14.76;70.55;98826.59;1040485;28;678;-67
2023/04/01 03:22:36;;;;;;;;;;;;;;;14.76;71.01;98830.13;1042498;28;1151;-67
2023/04/01 03:23:27;;;;;;;;;;;;;;;14.76;71.17;98822.06;1044584;28;605;-67
2023/04/01 03:24:17;;;;;;;;;;;;;;;14.75;70.84;98836.50;1044844;28;1083;-67
2023/04/01 03:25:07;;;;;;;;;;;;;;;14.81;70.78;98833.13;1045469;28;650;-67
2023/04/01 03:25:58;;;;;;;;;;;;;;;14.80;70.70;98828.75;1039775;28;1096;-67
2023/04/01 03:26:48;;;;;;;;;;;;;;;14.83;70.76;98832.94;1041900;28;778;-67
2023/04/01 03:27:39;;;;;;;;;;;;;;;14.83;70.54;98836.47;1040182;28;1217;-68
2023/04/01 03:28:29;;;;;;;;;;;;;;;14.83;70.58;98835.63;1044221;28;681;-67
2023/04/01 03:29:20;;;;;;;;;;;;;;;14.80;70.56;98836.81;1044675;28;1154;-67
2023/04/01 03:30:10;;;;;;;;;;;;;;;14.81;70.69;98832.28;1044148;28;680;-67
2023/04/01 03:31:01;;;;;;;;;;;;;;;14.80;70.53;98833.28;1042639;28;642;-67
2023/04/01 03:31:51;;;;;;;;;;;;;;;14.78;70.83;98840.69;1045254;28;1158;-67
2023/04/01 03:32:41;;;;;;;;;;;;;;;14.75;70.39;98839.19;1045379;28;685;-67
2023/04/01 03:33:32;;;;;;;;;;;;;;;14.76;70.76;98846.22;1044974;28;709;-67
2023/04/01 03:34:22;;;;;;;;;;;;;;;14.78;70.52;98840.69;1044031;28;634;-67
2023/04/01 03:35:13;;;;;;;;;;;;;;;14.77;70.57;98842.53;1045346;28;653;-68
2023/04/01 03:36:06;;;;;;;;;;;;;;;14.78;70.67;98841.50;1044797;28;1397;-67
2023/04/01 03:36:56;;;;;;;;;;;;;;;14.79;70.69;98848.53;1044325;28;1611;-67
2023/04/01 03:37:46;;;;;;;;;;;;;;;14.79;70.96;98840.50;1040278;28;634;-67
2023/04/01 03:38:37;;;;;;;;;;;;;;;14.80;70.90;98844.03;1040666;28;1174;-67
2023/04/01 03:39:27;;;;;;;;;;;;;;;14.79;70.65;98842.34;1041800;28;640;-67
2023/04/01 03:40:18;;;;;;;;;;;;;;;14.80;70.47;98850.22;1040254;28;717;-67
2023/04/01 03:41:08;;;;;;;;;;;;;;;14.83;70.89;98843.69;1041288;28;677;-67
2023/04/01 03:41:59;;;;;;;;;;;;;;;14.82;70.89;98840.16;1041427;28;1162;-67
2023/04/01 03:42:49;;;;;;;;;;;;;;;14.87;70.77;98845.81;1041827;28;816;-68
2023/04/01 03:43:40;;;;;;;;;;;;;;;14.85;70.51;98855.91;1044906;28;660;-68
2023/04/01 03:44:30;;;;;;;;;;;;;;;14.86;70.35;98848.69;1045401;28;684;-68
2023/04/01 03:45:21;;;;;;;;;;;;;;;14.86;70.52;98846.00;1041366;28;701;-68
2023/04/01 03:46:11;;;;;;;;;;;;;;;14.85;70.52;98853.22;1045151;28;1889;-68
2023/04/01 03:47:02;;;;;;;;;;;;;;;14.85;70.40;98853.22;1045368;28;754;-68
2023/04/01 03:47:52;;;;;;;;;;;;;;;14.84;70.57;98856.91;1044093;28;685;-68
2023/04/01 03:48:43;;;;;;;;;;;;;;;14.80;70.35;98855.59;1043374;28;662;-68
2023/04/01 03:49:33;;;;;;;;;;;;;;;14.78;70.84;98854.91;1045362;28;858;-68
2023/04/01 03:50:24;;;;;;;;;;;;;;;14.76;70.63;98864.97;1044656;28;1142;-68
2023/04/01 03:51:14;;;;;;;;;;;;;;;14.78;70.34;98856.75;1044391;28;693;-68
2023/04/01 03:52:05;;;;;;;;;;;;;;;14.77;70.81;98863.13;1044277;28;637;-69
2023/04/01 03:52:55;;;;;;;;;;;;;;;14.72;70.94;98863.66;1041590;28;1575;-68
2023/04/01 03:53:46;;;;;;;;;;;;;;;14.76;70.46;98864.97;1044699;28;749;-69
2023/04/01 03:54:36;;;;;;;;;;;;;;;14.79;70.92;98861.97;1045382;28;661;-68
2023/04/01 03:55:27;;;;;;;;;;;;;;;14.81;70.15;98862.63;1043923;28;633;-68
2023/04/01 03:56:17;;;;;;;;;;;;;;;14.81;70.88;98867.97;1043988;28;689;-68
2023/04/01 03:57:08;;;;;;;;;;;;;;;14.81;70.66;98867.16;1044564;28;1157;-68
2023/04/01 03:57:58;;;;;;;;;;;;;;;14.81;70.84;98876.03;1045250;28;627;-68
2023/04/01 03:58:48;;;;;;;;;;;;;;;14.80;70.41;98871.66;1041246;28;688;-68
2023/04/01 03:59:39;;;;;;;;;;;;;;;14.77;70.85;98868.50;1040703;28;756;-69
2023/04/01 04:00:29;;;;;;;;;;;;;;;14.78;70.51;98873.69;1041632;28;1082;-68
2023/04/01 04:01:22;;;;;;;;;;;;;;;14.81;70.82;98869.81;1040997;28;706;-68
2023/04/01 04:02:13;;;;;;;;;;;;;;;14.78;70.74;98873.69;1041174;28;693;-68
2023/04/01 04:03:03;;;;;;;;;;;;;;;14.77;70.99;98874.69;1041814;28;634;-69
2023/04/01 04:03:54;;;;;;;;;;;;;;;14.80;70.50;98879.72;1041206;28;669;-68
2023/04/01 04:04:46;;;;;;;;;;;;;;;14.80;70.61;98882.41;1042503;28;706;-68
2023/04/01 04:05:36;;;;;;;;;;;;;;;14.83;70.36;98879.38;1040114;28;1241;-68
2023/04/01 04:06:27;;;;;;;;;;;;;;;14.81;70.44;98886.75;1043856;28;1965;-67
2023/04/01 04:07:17;;;;;;;;;;;;;;;14.80;70.34;98882.41;1041576;28;1392;-67
2023/04/01 04:08:07;;;;;;;;;;;;;;;14.77;70.41;98890.78;1044014;28;672;-67
2023/04/01 04:08:58;;;;;;;;;;;;;;;14.76;70.64;98889.13;1041744;28;700;-67
2023/04/01 04:09:48;;;;;;;;;;;;;;;14.77;70.62;98898.81;1044030;28;1417;-67
2023/04/01 04:10:39;;;;;;;;;;;;;;;14.79;70.46;98891.44;1045364;28;664;-69
2023/04/01 04:11:30;;;;;;;;;;;;;;;14.81;70.44;98892.13;1041154;28;1098;-67
2023/04/01 04:12:20;;;;;;;;;;;;;;;14.80;70.68;98894.97;1040702;28;689;-67
2023/04/01 04:13:11;;;;;;;;;;;;;;;14.78;70.70;98905.03;1040900;28;1168;-67
2023/04/01 04:14:02;;;;;;;;;;;;;;;14.81;70.56;98896.66;1041259;28;634;-67
2023/04/01 04:14:52;;;;;;;;;;;;;;;14.78;70.69;98895.13;1039598;28;732;-67
2023/04/01 04:15:42;;;;;;;;;;;;;;;14.79;70.56;98901.34;1041416;28;1234;-66
2023/04/01 04:16:33;;;;;;;;;;;;;;;14.78;70.49;98910.38;1043653;28;665;-67
2023/04/01 04:17:23;;;;;;;;;;;;;;;14.81;70.24;98902.00;1042258;28;1186;-66
2023/04/01 04:18:14;;;;;;;;;;;;;;;14.77;70.51;98906.88;1045281;28;641;-67
2023/04/01 04:19:04;;;;;;;;;;;;;;;14.77;70.37;98903.34;1041811;28;626;-67
2023/04/01 04:19:55;;;;;;;;;;;;;;;14.76;70.17;98907.88;1044327;28;598;-66
2023/04/01 04:20:48;;;;;;;;;;;;;;;14.77;70.14;98909.56;1042521;28;755;-66
2023/04/01 04:21:38;;;;;;;;;;;;;;;14.77;70.31;98914.91;1044778;28;664;-66
2023/04/01 04:22:29;;;;;;;;;;;;;;;14.75;70.35;98908.88;1044060;28;1040;-67
2023/04/01 04:23:19;;;;;;;;;;;;;;;14.75;70.44;98908.88;1042521;28;1570;-67
2023/04/01 04:24:10;;;;;;;;;;;;;;;14.71;70.44;98915.59;1044287;28;1392;-67
2023/04/01 04:25:00;;;;;;;;;;;;;;;14.74;70.59;98917.09;1040049;28;1135;-67
2023/04/01 04:25:50;;;;;;;;;;;;;;;14.74;70.33;98919.78;1041171;28;633;-67
2023/04/01 04:26:41;;;;;;;;;;;;;;;14.78;70.24;98916.59;1041660;28;1055;-67
2023/04/01 04:27:31;;;;;;;;;;;;;;;14.79;70.27;98917.44;1045295;28;638;-67